Time;durP1;ratioP1;P1;durP2;ratioP2;P2;SDS_P1;SDS_P2;PMS_P1;PMS_P2;Temp;Humidity;BMP_temperature;BMP_pressure;BME280_temperature;BME280_humidity;BME280_pressure;Samples;Min_cycle;Max_cycle;Signal;HPM_P1;HPM_P2
2023/09/27 00:00:44;;;;;;;11.57;4.00;;;;;;;19.64;63.07;100722.00;6225667;28;20050;-72
2023/09/27 00:03:45;;;;;;;5.10;3.40;;;;;;;19.58;63.93;100718.13;6225670;28;20049;-72
2023/09/27 00:06:46;;;;;;;8.45;3.72;;;;;;;19.50;63.98;100717.97;6220075;28;20077;-73
2023/09/27 00:09:47;;;;;;;6.97;3.50;;;;;;;19.45;64.90;100717.50;6221540;28;20077;-73
2023/09/27 00:12:48;;;;;;;5.43;3.42;;;;;;;19.35;64.75;100716.63;6223124;28;20050;-72
2023/09/27 00:15:51;;;;;;;7.07;3.40;;;;;;;19.32;64.32;100715.09;6223866;28;20100;-72
2023/09/27 00:18:52;;;;;;;7.90;4.05;;;;;;;19.26;64.33;100713.00;6225744;28;20092;-72
2023/09/27 00:21:52;;;;;;;5.97;3.38;;;;;;;19.30;64.43;100709.13;6224074;28;20066;-72
2023/09/27 00:24:53;;;;;;;7.00;3.63;;;;;;;19.20;64.66;100706.44;6223007;28;20058;-72
2023/09/27 00:27:54;;;;;;;6.50;3.55;;;;;;;19.27;64.82;100706.72;6223253;28;20088;-72
2023/09/27 00:30:57;;;;;;;7.18;3.55;;;;;;;19.22;65.31;100703.66;6222498;28;20133;-72
2023/09/27 00:33:58;;;;;;;6.43;3.50;;;;;;;19.13;65.13;100697.38;6223531;28;20165;-72
2023/09/27 00:36:59;;;;;;;7.00;3.47;;;;;;;18.99;65.40;100703.00;6222218;28;20056;-72
2023/09/27 00:40:00;;;;;;;9.07;4.13;;;;;;;18.96;65.79;100700.63;6222809;28;20058;-72
2023/09/27 00:43:04;;;;;;;5.18;3.45;;;;;;;18.92;65.85;100707.97;6220001;28;20045;-72
2023/09/27 00:46:06;;;;;;;7.57;3.63;;;;;;;18.94;65.99;100708.66;6209513;28;20513;-71
2023/09/27 00:49:08;;;;;;;6.97;3.53;;;;;;;18.80;66.09;100709.00;6206041;28;20053;-72
2023/09/27 00:52:09;;;;;;;8.68;3.50;;;;;;;18.85;65.90;100709.47;6224049;28;20045;-73
2023/09/27 00:55:12;;;;;;;6.77;3.10;;;;;;;18.80;66.29;100701.09;6224524;28;20054;-73
2023/09/27 00:58:24;;;;;;;10.80;3.70;;;;;;;18.76;65.86;100708.44;6224879;28;20061;-73
2023/09/27 01:01:26;;;;;;;6.43;3.50;;;;;;;18.77;65.47;100703.97;6224696;28;20061;-73
2023/09/27 01:04:27;;;;;;;6.32;3.50;;;;;;;18.75;66.02;100701.44;6223335;28;20112;-73
2023/09/27 01:07:30;;;;;;;7.10;3.75;;;;;;;18.76;65.92;100702.28;6224354;28;20050;-72
2023/09/27 01:10:34;;;;;;;9.68;2.88;;;;;;;18.76;66.10;100704.91;6219161;28;20052;-72
2023/09/27 01:13:35;;;;;;;4.45;3.20;;;;;;;18.65;66.21;100703.19;6223143;28;20054;-72
2023/09/27 01:16:36;;;;;;;5.05;3.38;;;;;;;18.58;66.84;100707.34;6207740;28;20046;-72
2023/09/27 01:19:38;;;;;;;9.52;3.70;;;;;;;18.57;66.88;100701.19;6221512;28;21397;-72
2023/09/27 01:22:39;;;;;;;7.10;3.50;;;;;;;18.66;66.12;100703.06;6220811;28;20502;-72
2023/09/27 01:25:40;;;;;;;5.82;3.80;;;;;;;18.75;65.93;100708.56;6211124;28;20050;-72
2023/09/27 01:28:43;;;;;;;4.70;3.30;;;;;;;18.79;66.15;100708.19;6213386;28;20123;-72
2023/09/27 01:31:44;;;;;;;6.07;3.45;;;;;;;18.82;65.56;100707.06;6221099;28;20481;-73
2023/09/27 01:34:45;;;;;;;7.18;4.35;;;;;;;18.88;65.32;100703.91;6219607;28;20065;-72
2023/09/27 01:37:46;;;;;;;7.03;3.38;;;;;;;18.82;65.25;100707.94;6219017;28;20052;-72
2023/09/27 01:40:47;;;;;;;5.05;3.38;;;;;;;18.81;65.35;100708.88;6220278;28;20054;-73
2023/09/27 01:43:48;;;;;;;8.18;3.38;;;;;;;18.79;65.10;100702.91;6213310;28;20503;-72
2023/09/27 01:46:49;;;;;;;7.60;3.78;;;;;;;18.84;64.88;100700.72;6214733;28;20062;-72
2023/09/27 01:49:49;;;;;;;7.38;3.90;;;;;;;18.78;65.22;100703.00;6222683;28;20054;-72
2023/09/27 01:52:57;;;;;;;8.15;3.30;;;;;;;18.72;65.27;100699.09;6211223;28;20141;-72
2023/09/27 01:56:04;;;;;;;6.90;3.70;;;;;;;18.69;65.15;100694.03;6205919;28;20482;-72
2023/09/27 01:59:05;;;;;;;7.95;3.33;;;;;;;18.66;65.78;100697.78;6223219;28;20054;-73
2023/09/27 02:02:06;;;;;;;7.87;3.60;;;;;;;18.51;65.93;100694.66;6207104;28;20054;-72
2023/09/27 02:05:09;;;;;;;5.47;3.05;;;;;;;18.47;66.90;100695.88;6209321;28;20046;-73
2023/09/27 02:08:11;;;;;;;9.23;3.50;;;;;;;18.39;66.60;100695.69;6218321;28;20046;-73
2023/09/27 02:11:19;;;;;;;11.95;3.38;;;;;;;18.39;65.91;100700.09;6222692;28;20583;-73
2023/09/27 02:14:20;;;;;;;9.65;3.25;;;;;;;18.36;66.09;100693.28;6214601;28;20430;-73
2023/09/27 02:17:21;;;;;;;7.93;3.67;;;;;;;18.33;66.55;100694.38;6220947;28;20132;-72
2023/09/27 02:20:24;;;;;;;6.20;3.92;;;;;;;18.33;67.32;100696.19;6220432;28;20050;-72
2023/09/27 02:23:25;;;;;;;6.35;3.38;;;;;;;18.32;66.91;100699.78;6213230;28;20461;-73
2023/09/27 02:26:26;;;;;;;6.78;3.75;;;;;;;18.28;67.17;100698.38;6214856;28;20042;-73
2023/09/27 02:29:29;;;;;;;5.75;3.42;;;;;;;18.25;67.87;100701.28;6220903;28;20505;-73
2023/09/27 02:32:30;;;;;;;6.50;3.50;;;;;;;18.20;67.53;100700.81;6211675;28;20112;-73
2023/09/27 02:35:30;;;;;;;6.45;3.83;;;;;;;18.20;68.15;100699.03;6214497;28;20579;-72
2023/09/27 02:38:34;;;;;;;7.05;3.05;;;;;;;18.11;69.03;100710.31;6213897;28;20077;-72
2023/09/27 02:41:35;;;;;;;9.48;3.88;;;;;;;18.06;69.20;100702.78;6201989;28;20082;-72
2023/09/27 02:44:36;;;;;;;6.47;3.60;;;;;;;18.03;68.45;100705.66;6218976;28;20096;-72
2023/09/27 02:47:39;;;;;;;4.37;2.83;;;;;;;18.09;67.37;100705.16;6219723;28;20069;-72
2023/09/27 02:50:40;;;;;;;5.70;3.90;;;;;;;17.96;68.32;100704.50;6218735;28;20054;-72
2023/09/27 02:53:41;;;;;;;9.05;3.92;;;;;;;16.57;75.14;100703.91;6220447;28;20049;-72
2023/09/27 02:56:45;;;;;;;5.57;3.55;;;;;;;16.43;77.34;100698.84;6211201;28;20049;-73
2023/09/27 02:59:46;;;;;;;8.25;3.22;;;;;;;16.32;78.75;100692.59;6211892;28;20045;-71
2023/09/27 03:02:47;;;;;;;6.07;3.53;;;;;;;16.20;79.89;100690.88;6211376;28;20120;-71
2023/09/27 03:05:49;;;;;;;11.63;3.92;;;;;;;16.23;80.52;100697.75;6212450;28;20144;-72
2023/09/27 03:08:50;;;;;;;5.20;3.38;;;;;;;16.18;79.79;100697.22;6216937;28;20065;-73
2023/09/27 03:11:53;;;;;;;7.50;3.25;;;;;;;16.15;79.47;100694.84;6203104;28;20416;-73
2023/09/27 03:14:54;;;;;;;8.85;3.40;;;;;;;16.12;79.67;100693.25;6203816;28;20059;-73
2023/09/27 03:17:55;;;;;;;7.05;3.65;;;;;;;16.15;80.50;100700.09;6201198;28;20052;-73
2023/09/27 03:20:56;;;;;;;7.18;3.45;;;;;;;16.12;80.08;100698.50;6198411;28;20051;-72
2023/09/27 03:23:57;;;;;;;5.35;3.55;;;;;;;16.10;80.26;100698.66;6208008;28;20077;-73
2023/09/27 03:26:59;;;;;;;10.20;3.67;;;;;;;16.13;80.25;100697.56;6213528;28;20490;-72
2023/09/27 03:29:59;;;;;;;10.33;3.53;;;;;;;16.15;81.52;100697.47;6216547;28;20108;-73
2023/09/27 03:33:01;;;;;;;8.25;3.75;;;;;;;16.15;81.48;100697.47;6220813;28;20054;-73
2023/09/27 03:36:03;;;;;;;11.27;3.72;;;;;;;16.08;80.08;100692.66;6215948;28;20052;-73
2023/09/27 03:39:04;;;;;;;9.77;3.40;;;;;;;16.04;80.17;100695.59;6207836;28;20418;-72
2023/09/27 03:42:08;;;;;;;5.43;3.50;;;;;;;15.97;80.22;100689.97;6211682;28;20065;-72
2023/09/27 03:45:09;;;;;;;6.10;3.85;;;;;;;16.01;79.68;100686.16;6226123;28;20050;-72
2023/09/27 03:48:13;;;;;;;5.57;3.58;;;;;;;15.97;79.11;100689.97;6217054;28;20046;-72
2023/09/27 03:51:22;;;;;;;6.68;3.20;;;;;;;16.03;79.42;100693.94;6203710;28;20085;-72
2023/09/27 03:54:27;;;;;;;7.18;3.50;;;;;;;16.02;80.36;100697.50;6210660;28;20510;-73
2023/09/27 03:57:28;;;;;;;6.18;3.20;;;;;;;16.01;79.58;100696.69;6208928;28;20046;-72
2023/09/27 04:00:29;;;;;;;5.15;3.38;;;;;;;15.96;78.75;100692.69;6213826;28;20081;-72
2023/09/27 04:03:30;;;;;;;9.03;3.70;;;;;;;15.89;78.66;100690.50;6221840;28;20073;-72
2023/09/27 04:06:31;;;;;;;7.38;3.38;;;;;;;15.84;77.89;100691.81;6210569;28;20176;-72
2023/09/27 04:09:32;;;;;;;8.45;3.90;;;;;;;15.90;80.41;100696.63;6243995;28;20551;-72
2023/09/27 04:12:33;;;;;;;9.13;3.45;;;;;;;15.85;80.33;100691.69;6224135;28;20444;-73
2023/09/27 04:15:35;;;;;;;9.05;3.50;;;;;;;15.82;79.66;100691.09;6224033;28;20049;-73
2023/09/27 04:18:36;;;;;;;7.63;3.42;;;;;;;15.83;79.71;100698.03;6224237;28;20056;-72
2023/09/27 04:21:37;;;;;;;7.75;3.60;;;;;;;15.82;79.92;100693.72;6223920;28;20054;-73
2023/09/27 04:24:40;;;;;;;5.50;3.42;;;;;;;15.76;79.60;100699.44;6224404;28;20061;-72
2023/09/27 04:27:49;;;;;;;5.35;3.33;;;;;;;15.74;79.50;100701.34;6225459;28;20482;-72
2023/09/27 04:30:50;;;;;;;12.60;3.78;;;;;;;15.75;79.25;100693.34;6225657;28;20050;-73
2023/09/27 04:33:51;;;;;;;8.32;3.40;;;;;;;15.80;79.64;100700.91;6224963;28;20057;-73
2023/09/27 04:36:53;;;;;;;9.48;3.90;;;;;;;15.75;78.90;100701.25;6225115;28;20046;-72
2023/09/27 04:39:54;;;;;;;5.28;3.20;;;;;;;15.71;79.54;100710.28;6225408;28;20057;-73
2023/09/27 04:42:55;;;;;;;10.38;4.03;;;;;;;15.70;78.44;100716.47;6223891;28;20140;-72
2023/09/27 04:45:56;;;;;;;7.55;3.38;;;;;;;15.86;78.72;100713.59;6224078;28;20096;-73
2023/09/27 04:48:57;;;;;;;8.87;3.73;;;;;;;15.84;78.16;100705.81;6224901;28;20410;-72
2023/09/27 04:52:00;;;;;;;9.20;3.80;;;;;;;15.89;78.91;100708.94;6223762;28;20061;-72
2023/09/27 04:55:02;;;;;;;5.75;3.65;;;;;;;15.89;78.01;100706.31;6223269;28;20172;-72
2023/09/27 04:58:03;;;;;;;7.22;3.72;;;;;;;15.91;77.81;100714.94;6224591;28;20050;-72
2023/09/27 05:01:05;;;;;;;10.57;3.80;;;;;;;15.95;79.04;100715.56;6223936;28;20081;-72
2023/09/27 05:04:06;;;;;;;14.10;3.88;;;;;;;15.90;78.28;100715.06;6217766;28;20050;-72
2023/09/27 05:07:10;;;;;;;7.93;3.80;;;;;;;15.88;78.43;100707.28;6222099;28;20152;-72
2023/09/27 05:10:12;;;;;;;7.43;3.97;;;;;;;15.92;78.83;100710.53;6223187;28;20054;-72
2023/09/27 05:13:13;;;;;;;6.20;3.65;;;;;;;16.06;79.15;100718.25;6223140;28;20058;-72
2023/09/27 05:16:14;;;;;;;8.35;3.70;;;;;;;16.11;79.80;100718.75;6222913;28;20073;-73
2023/09/27 05:19:15;;;;;;;7.27;4.33;;;;;;;16.14;77.72;100715.03;6224512;28;20054;-73
2023/09/27 05:22:19;;;;;;;7.78;3.80;;;;;;;16.30;78.84;100717.38;6222793;28;20790;-73
2023/09/27 05:25:20;;;;;;;9.57;3.88;;;;;;;16.45;78.14;100718.00;6224121;28;20045;-73
2023/09/27 05:28:21;;;;;;;10.20;3.83;;;;;;;16.41;77.11;100717.44;6222720;28;20124;-73
2023/09/27 05:31:22;;;;;;;13.38;4.07;;;;;;;16.57;76.33;100726.78;6222883;28;20056;-72
2023/09/27 05:34:23;;;;;;;7.05;3.70;;;;;;;16.70;76.74;100735.47;6222474;28;20053;-72
2023/09/27 05:37:28;;;;;;;11.43;5.47;;;;;;;16.79;76.61;100726.00;6222599;28;20046;-72
2023/09/27 05:40:32;;;;;;;17.63;3.63;;;;;;;16.84;75.50;100737.06;6223578;28;20129;-72
2023/09/27 05:43:33;;;;;;;8.32;2.97;;;;;;;16.90;75.45;100737.47;6223493;28;20054;-72
2023/09/27 05:46:34;;;;;;;4.57;3.20;;;;;;;16.97;74.80;100740.44;6223589;28;20524;-72
2023/09/27 05:49:35;;;;;;;6.27;3.60;;;;;;;17.17;74.65;100744.16;6223723;28;20049;-72
2023/09/27 05:52:36;;;;;;;6.63;3.70;;;;;;;17.25;74.20;100740.94;6222020;28;20081;-72
2023/09/27 05:55:37;;;;;;;8.50;3.60;;;;;;;17.27;74.36;100737.22;6221907;28;20521;-72
2023/09/27 05:58:38;;;;;;;13.47;4.40;;;;;;;17.39;74.16;100745.97;6222119;28;20050;-72
2023/09/27 06:01:40;;;;;;;11.05;3.85;;;;;;;17.61;73.73;100747.75;6221827;28;20146;-73
2023/09/27 06:04:44;;;;;;;4.97;3.33;;;;;;;17.63;72.17;100747.63;6223032;28;20581;-72
2023/09/27 06:07:44;;;;;;;5.65;3.40;;;;;;;17.86;72.10;100740.53;6221603;28;20054;-73
2023/09/27 06:10:45;;;;;;;12.75;3.83;;;;;;;17.95;73.09;100750.34;6223079;28;20508;-73
2023/09/27 06:13:46;;;;;;;6.85;3.25;;;;;;;18.02;70.26;100750.72;6222867;28;20049;-73
2023/09/27 06:16:47;;;;;;;5.20;3.40;;;;;;;18.28;71.11;100754.69;6221704;28;20050;-72
2023/09/27 06:19:49;;;;;;;9.52;3.60;;;;;;;18.36;70.10;100767.25;6221789;28;20126;-72
2023/09/27 06:22:52;;;;;;;8.27;3.67;;;;;;;18.43;69.95;100759.66;6222533;28;20240;-73
2023/09/27 06:25:53;;;;;;;14.45;3.80;;;;;;;18.61;69.66;100768.69;6222298;28;20060;-73
2023/09/27 06:28:54;;;;;;;11.10;3.50;;;;;;;18.54;68.76;100764.91;6222512;28;20046;-73
2023/09/27 06:31:56;;;;;;;5.97;3.67;;;;;;;18.79;68.51;100768.16;6222585;28;20049;-72
2023/09/27 06:34:57;;;;;;;6.72;3.65;;;;;;;18.91;67.17;100769.75;6221243;28;20053;-72
2023/09/27 06:38:00;;;;;;;12.10;4.25;;;;;;;19.16;66.59;100771.16;6222298;28;20066;-73
2023/09/27 06:41:01;;;;;;;6.18;3.40;;;;;;;19.45;68.27;100768.63;6221098;28;20057;-73
2023/09/27 06:44:06;;;;;;;6.07;3.37;;;;;;;19.39;65.31;100771.81;6221122;28;20076;-72
2023/09/27 06:47:07;;;;;;;8.02;3.00;;;;;;;19.75;65.77;100779.31;6221085;28;20060;-72
2023/09/27 06:50:09;;;;;;;6.13;3.55;;;;;;;19.77;65.84;100778.25;6221110;28;20486;-73
2023/09/27 06:53:10;;;;;;;9.70;3.72;;;;;;;19.92;64.52;100782.16;6222278;28;20123;-72
2023/09/27 06:56:10;;;;;;;19.35;4.03;;;;;;;20.12;64.70;100791.00;6220842;28;20050;-73
2023/09/27 06:59:12;;;;;;;13.57;3.40;;;;;;;20.18;62.87;100794.03;6221072;28;20366;-73
2023/09/27 07:02:12;;;;;;;6.27;3.10;;;;;;;20.10;62.65;100798.22;6222109;28;20136;-73
2023/09/27 07:05:14;;;;;;;9.30;3.67;;;;;;;20.40;62.87;100804.38;6221943;28;20292;-73
2023/09/27 07:08:18;;;;;;;9.60;3.17;;;;;;;20.41;60.90;100800.78;6222062;28;20048;-72
2023/09/27 07:11:23;;;;;;;8.50;3.50;;;;;;;20.81;62.38;100793.66;6222160;28;20084;-73
2023/09/27 07:14:26;;;;;;;11.65;3.78;;;;;;;20.89;62.10;100801.72;6221961;28;20046;-73
2023/09/27 07:17:27;;;;;;;9.57;3.47;;;;;;;20.95;60.78;100792.38;6220707;28;20041;-73
2023/09/27 07:20:30;;;;;;;8.83;3.40;;;;;;;21.02;59.34;100793.47;6220840;28;20517;-73
2023/09/27 07:23:32;;;;;;;14.60;3.28;;;;;;;21.26;59.64;100793.81;6221884;28;20053;-74
2023/09/27 07:26:35;;;;;;;6.35;3.38;;;;;;;21.53;60.43;100798.34;6220727;28;20434;-73
2023/09/27 07:29:39;;;;;;;3.90;2.95;;;;;;;21.70;59.28;100793.22;6220651;28;20100;-73
2023/09/27 07:32:40;;;;;;;6.13;3.40;;;;;;;21.75;56.71;100795.47;6221827;28;20061;-73
2023/09/27 07:35:43;;;;;;;6.18;2.83;;;;;;;21.99;55.77;100806.38;6220515;28;20080;-73
2023/09/27 07:38:43;;;;;;;10.20;3.20;;;;;;;22.02;56.10;100802.56;6223597;28;20050;-73
2023/09/27 07:41:44;;;;;;;8.07;3.80;;;;;;;22.31;57.09;100803.22;6225165;28;20058;-73
2023/09/27 07:44:46;;;;;;;8.57;3.23;;;;;;;22.30;55.06;100806.88;6225266;28;20053;-73
2023/09/27 07:47:51;;;;;;;10.60;3.45;;;;;;;22.39;55.53;100806.97;6226363;28;20046;-72
2023/09/27 07:50:53;;;;;;;6.60;3.05;;;;;;;22.75;55.21;100805.06;6227067;28;20058;-73
2023/09/27 07:53:54;;;;;;;;;;;;;;;22.73;53.75;100805.25;6226729;28;20064;-73
2023/09/27 07:56:54;;;;;;;8.45;3.17;;;;;;;23.04;53.77;100807.50;6226359;28;19921;-73
2023/09/27 07:59:55;;;;;;;7.90;3.63;;;;;;;23.28;53.05;100805.97;6224867;28;20124;-73
2023/09/27 08:03:00;;;;;;;7.17;3.70;;;;;;;23.38;52.08;100809.34;6224747;28;20060;-73
2023/09/27 08:06:02;;;;;;;7.13;3.47;;;;;;;23.51;52.23;100815.09;6225924;28;20049;-73
2023/09/27 08:09:02;;;;;;;7.53;3.30;;;;;;;23.78;50.31;100815.03;6224617;28;20057;-73
2023/09/27 08:12:05;;;;;;;6.25;3.20;;;;;;;23.92;48.73;100801.09;6225903;28;20054;-73
2023/09/27 08:15:07;;;;;;;3.97;2.85;;;;;;;24.16;50.28;100802.16;6225755;28;20145;-73
2023/09/27 08:18:08;;;;;;;;;;;;;;;24.09;48.24;100810.81;6226168;28;20057;-73
2023/09/27 08:21:11;;;;;;;5.00;3.05;;;;;;;24.37;48.86;100809.69;6225667;28;19921;-73
2023/09/27 08:24:12;;;;;;;10.52;3.40;;;;;;;24.43;47.87;100812.50;6225601;28;20102;-73
2023/09/27 08:27:13;;;;;;;10.63;2.90;;;;;;;24.64;47.60;100809.38;6224333;28;20073;-74
2023/09/27 08:30:14;;;;;;;5.97;3.25;;;;;;;24.92;46.80;100804.53;6225914;28;20759;-74
2023/09/27 08:33:15;;;;;;;8.50;3.07;;;;;;;25.02;49.28;100804.34;6224182;28;20145;-73
2023/09/27 08:36:18;;;;;;;6.18;3.08;;;;;;;25.16;46.03;100809.97;6225276;28;20046;-73
2023/09/27 08:39:20;;;;;;;5.55;2.90;;;;;;;25.20;45.85;100800.63;6220711;28;20065;-74
2023/09/27 08:42:22;;;;;;;6.13;3.17;;;;;;;25.34;46.31;100800.78;6220338;28;20132;-73
2023/09/27 08:45:24;;;;;;;15.20;3.05;;;;;;;25.50;45.75;100793.72;6224323;28;20064;-72
2023/09/27 08:48:28;;;;;;;6.78;2.80;;;;;;;25.64;44.53;100795.66;6223149;28;20061;-73
2023/09/27 08:51:30;;;;;;;9.55;3.13;;;;;;;25.79;45.36;100795.75;6223432;28;20045;-73
2023/09/27 08:54:32;;;;;;;6.47;2.80;;;;;;;25.99;45.76;100803.38;6224044;28;20061;-73
2023/09/27 08:57:37;;;;;;;8.80;3.58;;;;;;;26.09;44.30;100793.28;6224288;28;20045;-73
2023/09/27 09:00:41;;;;;;;4.93;2.78;;;;;;;26.20;44.76;100797.38;6223010;28;20049;-73
2023/09/27 09:03:43;;;;;;;12.23;6.03;;;;;;;26.49;45.39;100793.97;6222845;28;20437;-73
2023/09/27 09:06:44;;;;;;;8.45;3.60;;;;;;;26.68;43.40;100785.47;6220744;28;20140;-73
2023/09/27 09:09:46;;;;;;;12.10;3.28;;;;;;;26.62;42.51;100788.03;6222483;28;20049;-73
2023/09/27 09:12:50;;;;;;;;;;;;;;;26.70;41.84;100782.59;6224326;28;20060;-73
2023/09/27 09:15:54;;;;;;;11.25;3.60;;;;;;;26.77;41.85;100775.53;6223769;28;19961;-73
2023/09/27 09:18:57;;;;;;;8.05;3.30;;;;;;;27.16;41.86;100781.63;6222337;28;20108;-73
2023/09/27 09:22:08;;;;;;;10.63;3.10;;;;;;;27.29;40.49;100773.81;6222182;28;20517;-73
2023/09/27 09:25:09;;;;;;;9.23;3.17;;;;;;;27.38;39.78;100775.38;6223738;28;20049;-73
2023/09/27 09:28:13;;;;;;;12.98;3.33;;;;;;;27.35;40.10;100772.25;6222417;28;20748;-73
2023/09/27 09:31:27;;;;;;;4.88;3.00;;;;;;;27.66;39.62;100775.53;6222425;28;20087;-73
2023/09/27 09:34:28;;;;;;;5.00;2.78;;;;;;;27.73;39.59;100775.59;6223790;28;20052;-73
2023/09/27 09:37:33;;;;;;;10.10;3.40;;;;;;;27.88;38.70;100775.59;6221793;28;20049;-73
2023/09/27 09:40:52;;;;;;;7.65;2.80;;;;;;;28.00;39.79;100770.56;6223301;28;20089;-73
2023/09/27 09:43:53;;;;;;;7.57;2.85;;;;;;;28.27;39.48;100785.06;6223684;28;20056;-73
2023/09/27 09:46:56;;;;;;;11.90;3.22;;;;;;;28.48;38.60;100785.06;6223269;28;20054;-73
2023/09/27 09:49:58;;;;;;;17.30;3.22;;;;;;;28.58;37.59;100781.22;6223053;28;20417;-73
2023/09/27 09:52:58;;;;;;;9.50;3.10;;;;;;;28.53;36.31;100774.59;6221830;28;20061;-73
2023/09/27 09:56:02;;;;;;;5.60;3.40;;;;;;;28.57;39.82;100774.22;6223092;28;20057;-73
2023/09/27 09:59:07;;;;;;;9.45;2.95;;;;;;;28.52;38.27;100775.63;6222718;28;20050;-73
2023/09/27 10:02:19;;;;;;;8.05;2.65;;;;;;;28.71;40.15;100767.91;6221170;28;20464;-72
2023/09/27 10:05:23;;;;;;;5.82;3.08;;;;;;;28.93;38.32;100768.66;6220839;28;20069;-73
2023/09/27 10:08:25;;;;;;;5.45;2.60;;;;;;;29.01;37.45;100756.94;6221696;28;20054;-73
2023/09/27 10:11:26;;;;;;;11.77;3.30;;;;;;;29.15;36.96;100760.56;6222601;28;20056;-73
2023/09/27 10:14:28;;;;;;;;;;;;;;;29.10;33.76;100755.78;6221905;28;20058;-73
2023/09/27 10:17:31;;;;;;;5.22;2.70;;;;;;;29.30;36.75;100756.72;6221496;28;19929;-73
2023/09/27 10:20:32;;;;;;;6.53;3.30;;;;;;;29.44;37.21;100749.53;6222472;28;20046;-74
2023/09/27 10:23:35;;;;;;;11.88;3.40;;;;;;;29.51;35.70;100753.09;6221391;28;20065;-73
2023/09/27 10:26:38;;;;;;;6.32;2.38;;;;;;;29.68;35.24;100744.66;6221251;28;20046;-73
2023/09/27 10:29:57;;;;;;;4.47;2.40;;;;;;;29.46;33.17;100743.97;6222574;28;20053;-74
2023/09/27 10:33:20;;;;;;;8.45;2.72;;;;;;;29.34;35.11;100743.69;6221049;28;20402;-73
2023/09/27 10:36:21;;;;;;;5.63;2.47;;;;;;;29.62;36.56;100732.03;6221158;28;20501;-73
2023/09/27 10:39:22;;;;;;;12.82;3.30;;;;;;;29.58;33.97;100744.22;6220752;28;20058;-73
2023/09/27 10:42:44;;;;;;;12.38;2.72;;;;;;;30.22;33.00;100732.97;6221009;28;20089;-73
2023/09/27 10:45:54;;;;;;;;;;;;;;;29.85;32.87;100737.06;6222437;28;20066;-73
2023/09/27 10:49:00;;;;;;;11.27;2.33;;;;;;;29.91;33.68;100725.50;6220519;28;19925;-72
2023/09/27 10:52:01;;;;;;;6.32;2.47;;;;;;;30.17;34.83;100727.41;6253802;28;20581;-72
2023/09/27 10:55:12;;;;;;;4.53;2.67;;;;;;;29.90;31.42;100724.69;6220611;28;20057;-73
2023/09/27 10:58:16;;;;;;;4.47;2.65;;;;;;;29.98;31.72;100720.13;6220652;28;20049;-73
2023/09/27 11:01:20;;;;;;;5.28;2.42;;;;;;;29.98;31.37;100715.59;6253624;28;20053;-73
2023/09/27 11:04:23;;;;;;;9.38;2.85;;;;;;;30.08;32.66;100713.31;6221620;28;20423;-73
2023/09/27 11:07:49;;;;;;;6.68;2.67;;;;;;;30.18;32.16;100704.00;6221446;28;20053;-73
2023/09/27 11:10:52;;;;;;;10.60;2.92;;;;;;;30.32;33.92;100705.69;6220703;28;20053;-73
2023/09/27 11:13:53;;;;;;;8.25;2.70;;;;;;;30.27;33.11;100703.59;6224579;28;20046;-73
2023/09/27 11:16:57;;;;;;;9.35;3.30;;;;;;;30.58;32.72;100704.00;6224795;28;20084;-73
2023/09/27 11:20:15;;;;;;;11.65;2.83;;;;;;;30.42;32.11;100707.97;6258238;28;20054;-73
2023/09/27 11:23:16;;;;;;;6.78;2.40;;;;;;;30.56;33.67;100700.69;6226197;28;20061;-73
2023/09/27 11:26:19;;;;;;;4.40;2.70;;;;;;;30.63;32.36;100699.63;6225287;28;20417;-72
2023/09/27 11:29:26;;;;;;;5.25;2.40;;;;;;;30.48;30.94;100683.72;6226048;28;20050;-73
2023/09/27 11:32:27;;;;;;;4.70;2.60;;;;;;;30.65;31.25;100692.19;6226216;28;20057;-73
2023/09/27 11:35:28;;;;;;;6.03;2.38;;;;;;;30.66;31.38;100691.16;6226252;28;20143;-73
2023/09/27 11:38:29;;;;;;;7.35;2.47;;;;;;;30.70;30.13;100686.16;6225188;28;20046;-73
2023/09/27 11:41:31;;;;;;;4.95;2.58;;;;;;;30.62;31.80;100698.00;6226148;28;20045;-73
2023/09/27 11:44:31;;;;;;;3.47;2.40;;;;;;;30.61;31.36;100685.56;6226572;28;20141;-72
2023/09/27 11:47:45;;;;;;;8.18;2.60;;;;;;;30.78;31.48;100685.91;6225923;28;20042;-73
2023/09/27 11:50:46;;;;;;;8.40;2.30;;;;;;;30.49;32.82;100687.22;6225371;28;20050;-73
2023/09/27 11:53:49;;;;;;;3.65;2.60;;;;;;;30.27;31.85;100676.69;6226195;28;20169;-73
2023/09/27 11:56:53;;;;;;;10.88;2.90;;;;;;;30.42;33.35;100678.34;6224851;28;20441;-73
2023/09/27 11:59:56;;;;;;;7.03;2.53;;;;;;;30.56;33.54;100676.44;6226122;28;20058;-72
2023/09/27 12:02:58;;;;;;;8.60;2.80;;;;;;;30.56;33.11;100676.44;6226100;28;20107;-73
2023/09/27 12:06:02;;;;;;;7.32;2.92;;;;;;;30.23;31.36;100670.06;6224329;28;20415;-73
2023/09/27 12:09:06;;;;;;;13.43;2.58;;;;;;;30.25;32.52;100665.28;6224523;28;20050;-73
2023/09/27 12:12:07;;;;;;;5.40;2.50;;;;;;;30.21;29.66;100660.50;6224715;28;20057;-73
2023/09/27 12:15:08;;;;;;;6.30;2.83;;;;;;;29.76;29.51;100665.69;6225657;28;20045;-73
2023/09/27 12:18:09;;;;;;;;;;;;;;;30.02;33.81;100659.50;6226102;28;20050;-73
2023/09/27 12:21:10;;;;;;;8.17;2.53;;;;;;;29.54;30.79;100658.59;6224426;28;19937;-73
2023/09/27 12:24:11;;;;;;;10.20;2.72;;;;;;;29.66;33.54;100653.44;6256484;28;20180;-73
2023/09/27 12:27:12;;;;;;;10.30;2.72;;;;;;;29.72;32.66;100649.13;6225248;28;20510;-73
2023/09/27 12:30:13;;;;;;;6.03;2.47;;;;;;;29.48;30.25;100653.19;6224421;28;20133;-73
2023/09/27 12:33:15;;;;;;;8.52;3.05;;;;;;;29.78;31.61;100651.00;6224174;28;20066;-73
2023/09/27 12:36:16;;;;;;;5.07;2.75;;;;;;;29.72;31.82;100649.13;6225317;28;20052;-73
2023/09/27 12:39:20;;;;;;;6.88;2.65;;;;;;;29.87;31.75;100643.56;6225405;28;20050;-74
2023/09/27 12:42:21;;;;;;;9.95;2.60;;;;;;;29.81;30.27;100639.81;6223805;28;20136;-73
2023/09/27 12:45:22;;;;;;;6.05;2.67;;;;;;;29.79;31.59;100638.38;6225085;28;20054;-73
2023/09/27 12:48:23;;;;;;;4.57;2.50;;;;;;;29.88;29.31;100639.84;6224768;28;20104;-73
2023/09/27 12:51:26;;;;;;;5.80;2.50;;;;;;;29.57;29.96;100627.78;6224777;28;20522;-73
2023/09/27 12:54:30;;;;;;;5.95;2.83;;;;;;;29.74;32.90;100633.63;6223988;28;20054;-73
2023/09/27 12:57:31;;;;;;;4.85;2.70;;;;;;;29.24;27.79;100625.88;6222868;28;20046;-74
2023/09/27 13:00:38;;;;;;;5.90;2.58;;;;;;;29.39;31.82;100623.00;6223200;28;20119;-73
2023/09/27 13:03:39;;;;;;;6.03;2.47;;;;;;;29.39;30.82;100623.00;6223840;28;20050;-73
2023/09/27 13:06:40;;;;;;;9.18;2.38;;;;;;;29.35;30.18;100615.56;6222710;28;20096;-73
2023/09/27 13:09:43;;;;;;;8.65;2.85;;;;;;;29.50;30.33;100618.88;6224060;28;20057;-73
2023/09/27 13:12:45;;;;;;;7.93;2.80;;;;;;;29.36;32.04;100615.31;6223105;28;20058;-73
2023/09/27 13:15:45;;;;;;;;;;;;;;;29.27;31.52;100612.00;6224319;28;20486;-73
2023/09/27 13:18:47;;;;;;;6.10;2.90;;;;;;;29.38;31.42;100607.88;6223096;28;19932;-73
2023/09/27 13:21:48;;;;;;;4.25;2.40;;;;;;;29.22;29.43;100609.13;6220768;28;20062;-73
2023/09/27 13:24:49;;;;;;;6.00;2.88;;;;;;;29.20;30.52;100600.44;6218683;28;20054;-73
2023/09/27 13:27:50;;;;;;;9.73;2.92;;;;;;;29.23;30.18;100597.31;6220627;28;20141;-74
2023/09/27 13:30:52;;;;;;;10.90;2.88;;;;;;;29.32;30.88;100597.94;6222820;28;20050;-73
2023/09/27 13:33:53;;;;;;;5.95;2.80;;;;;;;28.90;30.24;100589.97;6223662;28;20056;-73
2023/09/27 13:36:54;;;;;;;4.15;2.05;;;;;;;28.93;31.25;100592.25;6222355;28;20081;-74
2023/09/27 13:39:56;;;;;;;5.07;2.60;;;;;;;28.89;31.20;100598.22;6222089;28;20062;-73
2023/09/27 13:42:56;;;;;;;4.68;2.45;;;;;;;29.01;32.41;100588.53;6222066;28;20090;-73
2023/09/27 13:45:57;;;;;;;5.10;2.47;;;;;;;28.78;32.99;100596.13;6223452;28;20128;-73
2023/09/27 13:48:58;;;;;;;8.93;2.40;;;;;;;28.68;33.55;100581.22;6221935;28;20070;-73
2023/09/27 13:51:59;;;;;;;8.13;2.72;;;;;;;28.63;33.55;100582.84;6223142;28;20180;-73
2023/09/27 13:55:00;;;;;;;4.55;2.45;;;;;;;28.57;33.45;100579.09;6223066;28;20050;-73
2023/09/27 13:58:03;;;;;;;3.60;2.40;;;;;;;28.33;32.90;100581.22;6223299;28;20049;-73
2023/09/27 14:01:05;;;;;;;5.90;2.70;;;;;;;28.27;34.64;100582.00;6222740;28;20457;-73
2023/09/27 14:04:07;;;;;;;9.23;2.60;;;;;;;28.25;32.74;100576.00;6223492;28;20057;-73
2023/09/27 14:07:08;;;;;;;3.50;2.45;;;;;;;28.21;31.41;100573.88;6222086;28;20057;-73